sensor_id;sensor_type;location;lat;lon;timestamp;P1;durP1;ratioP1;P2;durP2;ratioP2
21334;SDS011;10826;52.536;13.432;2022-09-24T00:01:25;6.10;;;4.77;;
21334;SDS011;10826;52.536;13.432;2022-09-24T00:03:56;5.27;;;4.80;;
21334;SDS011;10826;52.536;13.432;2022-09-24T00:06:26;5.17;;;4.67;;
21334;SDS011;10826;52.536;13.432;2022-09-24T00:08:55;9.07;;;5.43;;
21334;SDS011;10826;52.536;13.432;2022-09-24T00:11:23;5.87;;;5.10;;
21334;SDS011;10826;52.536;13.432;2022-09-24T00:13:53;5.93;;;5.33;;
21334;SDS011;10826;52.536;13.432;2022-09-24T00:16:23;6.00;;;5.40;;
21334;SDS011;10826;52.536;13.432;2022-09-24T00:18:51;5.57;;;5.17;;
21334;SDS011;10826;52.536;13.432;2022-09-24T00:21:20;5.80;;;5.17;;
21334;SDS011;10826;52.536;13.432;2022-09-24T00:23:51;7.80;;;5.00;;
21334;SDS011;10826;52.536;13.432;2022-09-24T00:26:19;5.10;;;4.70;;
21334;SDS011;10826;52.536;13.432;2022-09-24T00:29:05;5.47;;;5.07;;
21334;SDS011;10826;52.536;13.432;2022-09-24T00:31:32;8.40;;;4.93;;
21334;SDS011;10826;52.536;13.432;2022-09-24T00:33:59;5.20;;;4.80;;
21334;SDS011;10826;52.536;13.432;2022-09-24T00:36:25;5.87;;;5.30;;
21334;SDS011;10826;52.536;13.432;2022-09-24T00:38:54;4.57;;;4.27;;
21334;SDS011;10826;52.536;13.432;2022-09-24T00:41:25;6.40;;;5.80;;
21334;SDS011;10826;52.536;13.432;2022-09-24T00:43:54;6.70;;;5.90;;
21334;SDS011;10826;52.536;13.432;2022-09-24T00:51:37;5.50;;;5.10;;
21334;SDS011;10826;52.536;13.432;2022-09-24T00:54:07;6.23;;;5.70;;
21334;SDS011;10826;52.536;13.432;2022-09-24T00:56:41;5.30;;;4.90;;
21334;SDS011;10826;52.536;13.432;2022-09-24T00:59:12;5.10;;;4.70;;
21334;SDS011;10826;52.536;13.432;2022-09-24T01:01:46;9.00;;;5.57;;
21334;SDS011;10826;52.536;13.432;2022-09-24T01:04:13;8.90;;;5.30;;
21334;SDS011;10826;52.536;13.432;2022-09-24T01:06:46;5.30;;;4.90;;
21334;SDS011;10826;52.536;13.432;2022-09-24T01:09:13;5.93;;;5.33;;
21334;SDS011;10826;52.536;13.432;2022-09-24T01:17:31;6.00;;;5.20;;
21334;SDS011;10826;52.536;13.432;2022-09-24T01:20:27;5.50;;;5.00;;
21334;SDS011;10826;52.536;13.432;2022-09-24T01:28:52;6.07;;;5.43;;
21334;SDS011;10826;52.536;13.432;2022-09-24T01:31:54;5.63;;;5.13;;
21334;SDS011;10826;52.536;13.432;2022-09-24T01:34:50;6.40;;;4.90;;
21334;SDS011;10826;52.536;13.432;2022-09-24T01:37:27;5.53;;;5.00;;
21334;SDS011;10826;52.536;13.432;2022-09-24T01:39:58;6.53;;;5.20;;
21334;SDS011;10826;52.536;13.432;2022-09-24T01:42:27;5.47;;;4.97;;
21334;SDS011;10826;52.536;13.432;2022-09-24T01:44:56;5.93;;;5.20;;
21334;SDS011;10826;52.536;13.432;2022-09-24T01:47:43;5.33;;;4.83;;
21334;SDS011;10826;52.536;13.432;2022-09-24T01:50:14;6.00;;;5.43;;
21334;SDS011;10826;52.536;13.432;2022-09-24T01:53:03;5.50;;;5.00;;
21334;SDS011;10826;52.536;13.432;2022-09-24T01:55:37;5.30;;;4.87;;
21334;SDS011;10826;52.536;13.432;2022-09-24T01:58:15;5.27;;;4.87;;
21334;SDS011;10826;52.536;13.432;2022-09-24T02:00:48;5.73;;;5.23;;
21334;SDS011;10826;52.536;13.432;2022-09-24T02:03:26;5.30;;;4.77;;
21334;SDS011;10826;52.536;13.432;2022-09-24T02:06:00;5.77;;;4.73;;
21334;SDS011;10826;52.536;13.432;2022-09-24T02:08:37;6.43;;;4.90;;
21334;SDS011;10826;52.536;13.432;2022-09-24T02:11:12;5.80;;;5.23;;
21334;SDS011;10826;52.536;13.432;2022-09-24T02:13:49;7.27;;;5.07;;
21334;SDS011;10826;52.536;13.432;2022-09-24T02:16:33;5.37;;;4.97;;
21334;SDS011;10826;52.536;13.432;2022-09-24T02:19:10;5.33;;;4.93;;
21334;SDS011;10826;52.536;13.432;2022-09-24T02:21:47;5.20;;;4.70;;
21334;SDS011;10826;52.536;13.432;2022-09-24T02:26:48;5.83;;;5.23;;
21334;SDS011;10826;52.536;13.432;2022-09-24T02:29:15;5.30;;;4.80;;
21334;SDS011;10826;52.536;13.432;2022-09-24T02:31:47;5.83;;;5.20;;
21334;SDS011;10826;52.536;13.432;2022-09-24T02:34:25;7.93;;;5.47;;
21334;SDS011;10826;52.536;13.432;2022-09-24T02:37:02;5.27;;;4.77;;
21334;SDS011;10826;52.536;13.432;2022-09-24T02:39:34;6.83;;;4.93;;
21334;SDS011;10826;52.536;13.432;2022-09-24T02:42:01;5.07;;;4.57;;
21334;SDS011;10826;52.536;13.432;2022-09-24T02:44:30;5.27;;;4.87;;
21334;SDS011;10826;52.536;13.432;2022-09-24T02:47:03;5.30;;;4.90;;
21334;SDS011;10826;52.536;13.432;2022-09-24T02:49:31;7.63;;;5.43;;
21334;SDS011;10826;52.536;13.432;2022-09-24T02:51:57;5.20;;;4.63;;
21334;SDS011;10826;52.536;13.432;2022-09-24T02:54:23;5.90;;;5.40;;
21334;SDS011;10826;52.536;13.432;2022-09-24T02:56:50;5.50;;;5.10;;
21334;SDS011;10826;52.536;13.432;2022-09-24T02:59:16;5.90;;;5.30;;
21334;SDS011;10826;52.536;13.432;2022-09-24T03:01:43;7.53;;;4.73;;
21334;SDS011;10826;52.536;13.432;2022-09-24T03:04:10;5.57;;;5.07;;
21334;SDS011;10826;52.536;13.432;2022-09-24T03:06:37;6.60;;;5.90;;
21334;SDS011;10826;52.536;13.432;2022-09-24T03:09:03;5.70;;;4.80;;
21334;SDS011;10826;52.536;13.432;2022-09-24T03:11:30;5.80;;;5.30;;
21334;SDS011;10826;52.536;13.432;2022-09-24T03:13:57;6.10;;;5.03;;
21334;SDS011;10826;52.536;13.432;2022-09-24T03:16:24;5.87;;;5.30;;
21334;SDS011;10826;52.536;13.432;2022-09-24T03:18:50;11.53;;;5.40;;
21334;SDS011;10826;52.536;13.432;2022-09-24T03:21:17;6.17;;;4.87;;
21334;SDS011;10826;52.536;13.432;2022-09-24T03:23:45;8.27;;;6.13;;
21334;SDS011;10826;52.536;13.432;2022-09-24T03:26:12;8.23;;;7.10;;
21334;SDS011;10826;52.536;13.432;2022-09-24T03:28:38;8.27;;;6.53;;
21334;SDS011;10826;52.536;13.432;2022-09-24T03:31:05;7.20;;;5.90;;
21334;SDS011;10826;52.536;13.432;2022-09-24T03:33:37;6.30;;;5.77;;
21334;SDS011;10826;52.536;13.432;2022-09-24T03:36:10;5.17;;;4.73;;
21334;SDS011;10826;52.536;13.432;2022-09-24T03:38:41;6.03;;;5.53;;
21334;SDS011;10826;52.536;13.432;2022-09-24T03:41:10;5.57;;;5.07;;
21334;SDS011;10826;52.536;13.432;2022-09-24T03:43:37;6.20;;;5.20;;
21334;SDS011;10826;52.536;13.432;2022-09-24T03:46:03;5.30;;;4.90;;
21334;SDS011;10826;52.536;13.432;2022-09-24T03:48:32;7.10;;;5.73;;
21334;SDS011;10826;52.536;13.432;2022-09-24T03:51:08;6.03;;;5.27;;
21334;SDS011;10826;52.536;13.432;2022-09-24T03:53:37;9.03;;;5.90;;
21334;SDS011;10826;52.536;13.432;2022-09-24T03:56:04;6.20;;;5.60;;
21334;SDS011;10826;52.536;13.432;2022-09-24T03:58:32;6.10;;;5.60;;
21334;SDS011;10826;52.536;13.432;2022-09-24T04:01:02;6.33;;;5.83;;
21334;SDS011;10826;52.536;13.432;2022-09-24T04:03:28;5.97;;;5.47;;
21334;SDS011;10826;52.536;13.432;2022-09-24T04:05:54;7.13;;;5.87;;
21334;SDS011;10826;52.536;13.432;2022-09-24T04:08:20;6.40;;;5.70;;
21334;SDS011;10826;52.536;13.432;2022-09-24T04:10:48;7.33;;;5.60;;
21334;SDS011;10826;52.536;13.432;2022-09-24T04:13:15;5.87;;;5.47;;
21334;SDS011;10826;52.536;13.432;2022-09-24T04:15:43;6.13;;;5.63;;
21334;SDS011;10826;52.536;13.432;2022-09-24T04:18:09;5.90;;;5.30;;
21334;SDS011;10826;52.536;13.432;2022-09-24T04:20:35;7.10;;;5.97;;
21334;SDS011;10826;52.536;13.432;2022-09-24T04:23:02;6.83;;;6.03;;
21334;SDS011;10826;52.536;13.432;2022-09-24T04:25:30;5.83;;;5.37;;
21334;SDS011;10826;52.536;13.432;2022-09-24T04:27:58;5.97;;;5.07;;
21334;SDS011;10826;52.536;13.432;2022-09-24T04:30:27;6.30;;;5.70;;
21334;SDS011;10826;52.536;13.432;2022-09-24T04:32:55;6.00;;;5.50;;
21334;SDS011;10826;52.536;13.432;2022-09-24T04:35:25;9.53;;;5.70;;
21334;SDS011;10826;52.536;13.432;2022-09-24T04:37:53;6.03;;;5.50;;
21334;SDS011;10826;52.536;13.432;2022-09-24T04:40:20;6.00;;;5.50;;
21334;SDS011;10826;52.536;13.432;2022-09-24T04:42:46;6.77;;;5.80;;
21334;SDS011;10826;52.536;13.432;2022-09-24T04:45:13;6.10;;;4.90;;
21334;SDS011;10826;52.536;13.432;2022-09-24T04:47:47;6.20;;;5.40;;
21334;SDS011;10826;52.536;13.432;2022-09-24T04:50:20;5.73;;;5.27;;
21334;SDS011;10826;52.536;13.432;2022-09-24T04:52:46;6.17;;;5.60;;
21334;SDS011;10826;52.536;13.432;2022-09-24T04:55:12;6.57;;;5.63;;
21334;SDS011;10826;52.536;13.432;2022-09-24T04:57:38;5.43;;;4.93;;
21334;SDS011;10826;52.536;13.432;2022-09-24T05:00:06;5.63;;;5.13;;
21334;SDS011;10826;52.536;13.432;2022-09-24T05:02:38;5.30;;;4.63;;
21334;SDS011;10826;52.536;13.432;2022-09-24T05:05:05;8.13;;;6.40;;
21334;SDS011;10826;52.536;13.432;2022-09-24T05:07:32;8.93;;;5.70;;
21334;SDS011;10826;52.536;13.432;2022-09-24T05:09:58;5.10;;;4.73;;
21334;SDS011;10826;52.536;13.432;2022-09-24T05:12:24;5.80;;;5.13;;
21334;SDS011;10826;52.536;13.432;2022-09-24T05:14:50;6.17;;;5.57;;
21334;SDS011;10826;52.536;13.432;2022-09-24T05:17:16;6.27;;;5.77;;
21334;SDS011;10826;52.536;13.432;2022-09-24T05:19:41;6.07;;;5.47;;
21334;SDS011;10826;52.536;13.432;2022-09-24T05:22:07;5.50;;;5.00;;
21334;SDS011;10826;52.536;13.432;2022-09-24T05:24:33;6.13;;;5.63;;
21334;SDS011;10826;52.536;13.432;2022-09-24T05:26:59;6.37;;;5.77;;
21334;SDS011;10826;52.536;13.432;2022-09-24T05:29:38;6.37;;;5.87;;
21334;SDS011;10826;52.536;13.432;2022-09-24T05:32:20;5.73;;;5.30;;
21334;SDS011;10826;52.536;13.432;2022-09-24T05:34:46;11.20;;;5.83;;
21334;SDS011;10826;52.536;13.432;2022-09-24T05:37:12;8.50;;;5.50;;
21334;SDS011;10826;52.536;13.432;2022-09-24T05:39:39;5.90;;;5.40;;
21334;SDS011;10826;52.536;13.432;2022-09-24T05:42:08;6.40;;;5.80;;
21334;SDS011;10826;52.536;13.432;2022-09-24T05:44:38;6.03;;;5.53;;
21334;SDS011;10826;52.536;13.432;2022-09-24T05:47:04;7.33;;;5.33;;
21334;SDS011;10826;52.536;13.432;2022-09-24T05:49:30;6.07;;;5.50;;
21334;SDS011;10826;52.536;13.432;2022-09-24T05:51:56;6.27;;;5.73;;
21334;SDS011;10826;52.536;13.432;2022-09-24T05:54:22;12.30;;;5.60;;
21334;SDS011;10826;52.536;13.432;2022-09-24T05:56:48;6.73;;;5.70;;
21334;SDS011;10826;52.536;13.432;2022-09-24T05:59:14;6.03;;;5.43;;
21334;SDS011;10826;52.536;13.432;2022-09-24T06:01:40;7.03;;;5.40;;
21334;SDS011;10826;52.536;13.432;2022-09-24T06:04:06;5.90;;;5.50;;
21334;SDS011;10826;52.536;13.432;2022-09-24T06:06:35;6.03;;;5.43;;
21334;SDS011;10826;52.536;13.432;2022-09-24T06:09:01;5.97;;;5.30;;
21334;SDS011;10826;52.536;13.432;2022-09-24T06:11:29;5.93;;;5.43;;
21334;SDS011;10826;52.536;13.432;2022-09-24T06:14:02;7.90;;;5.67;;
21334;SDS011;10826;52.536;13.432;2022-09-24T06:16:31;6.07;;;5.60;;
21334;SDS011;10826;52.536;13.432;2022-09-24T06:18:58;6.63;;;5.70;;
21334;SDS011;10826;52.536;13.432;2022-09-24T06:21:24;5.50;;;5.00;;
21334;SDS011;10826;52.536;13.432;2022-09-24T06:23:50;5.73;;;5.23;;
21334;SDS011;10826;52.536;13.432;2022-09-24T06:26:16;5.60;;;5.20;;
21334;SDS011;10826;52.536;13.432;2022-09-24T06:28:43;5.57;;;5.17;;
21334;SDS011;10826;52.536;13.432;2022-09-24T06:31:08;5.70;;;5.20;;
21334;SDS011;10826;52.536;13.432;2022-09-24T06:33:36;6.67;;;5.93;;
21334;SDS011;10826;52.536;13.432;2022-09-24T06:36:02;5.77;;;5.00;;
21334;SDS011;10826;52.536;13.432;2022-09-24T06:38:29;5.60;;;5.20;;
21334;SDS011;10826;52.536;13.432;2022-09-24T06:40:59;7.43;;;5.53;;
21334;SDS011;10826;52.536;13.432;2022-09-24T06:43:27;5.87;;;5.37;;
21334;SDS011;10826;52.536;13.432;2022-09-24T06:45:54;6.10;;;5.60;;
21334;SDS011;10826;52.536;13.432;2022-09-24T06:48:22;5.60;;;5.20;;
21334;SDS011;10826;52.536;13.432;2022-09-24T06:50:49;5.97;;;5.30;;
21334;SDS011;10826;52.536;13.432;2022-09-24T06:53:16;5.90;;;5.40;;
21334;SDS011;10826;52.536;13.432;2022-09-24T06:55:42;8.27;;;5.50;;
21334;SDS011;10826;52.536;13.432;2022-09-24T06:58:10;7.10;;;6.37;;
21334;SDS011;10826;52.536;13.432;2022-09-24T07:00:39;6.50;;;5.90;;
21334;SDS011;10826;52.536;13.432;2022-09-24T07:03:08;6.47;;;5.77;;
21334;SDS011;10826;52.536;13.432;2022-09-24T07:05:40;6.40;;;5.90;;
21334;SDS011;10826;52.536;13.432;2022-09-24T07:08:06;8.20;;;5.87;;
21334;SDS011;10826;52.536;13.432;2022-09-24T07:10:35;7.03;;;5.63;;
21334;SDS011;10826;52.536;13.432;2022-09-24T07:13:02;7.97;;;5.73;;
21334;SDS011;10826;52.536;13.432;2022-09-24T07:15:28;6.00;;;5.40;;
21334;SDS011;10826;52.536;13.432;2022-09-24T07:17:56;6.00;;;5.50;;
21334;SDS011;10826;52.536;13.432;2022-09-24T07:20:23;6.03;;;5.50;;
21334;SDS011;10826;52.536;13.432;2022-09-24T07:22:53;6.03;;;5.50;;
21334;SDS011;10826;52.536;13.432;2022-09-24T07:25:20;6.73;;;6.10;;
21334;SDS011;10826;52.536;13.432;2022-09-24T07:27:46;6.50;;;5.80;;
21334;SDS011;10826;52.536;13.432;2022-09-24T07:30:12;6.20;;;5.60;;
21334;SDS011;10826;52.536;13.432;2022-09-24T07:32:38;6.30;;;5.70;;
21334;SDS011;10826;52.536;13.432;2022-09-24T07:35:04;6.40;;;5.83;;
21334;SDS011;10826;52.536;13.432;2022-09-24T07:37:31;7.17;;;6.53;;
21334;SDS011;10826;52.536;13.432;2022-09-24T07:39:58;6.30;;;5.80;;
21334;SDS011;10826;52.536;13.432;2022-09-24T07:42:24;6.20;;;5.70;;
21334;SDS011;10826;52.536;13.432;2022-09-24T07:44:53;9.13;;;6.27;;
21334;SDS011;10826;52.536;13.432;2022-09-24T07:47:21;6.40;;;5.80;;
21334;SDS011;10826;52.536;13.432;2022-09-24T07:49:47;6.17;;;5.60;;
21334;SDS011;10826;52.536;13.432;2022-09-24T07:52:13;8.63;;;5.73;;
21334;SDS011;10826;52.536;13.432;2022-09-24T07:54:39;6.83;;;6.13;;
21334;SDS011;10826;52.536;13.432;2022-09-24T07:57:09;6.20;;;5.67;;
21334;SDS011;10826;52.536;13.432;2022-09-24T07:59:39;6.50;;;5.90;;
21334;SDS011;10826;52.536;13.432;2022-09-24T08:02:08;6.30;;;5.70;;
21334;SDS011;10826;52.536;13.432;2022-09-24T08:04:43;7.07;;;5.87;;
21334;SDS011;10826;52.536;13.432;2022-09-24T08:07:10;9.33;;;6.50;;
21334;SDS011;10826;52.536;13.432;2022-09-24T08:09:38;7.73;;;7.03;;
21334;SDS011;10826;52.536;13.432;2022-09-24T08:12:04;6.67;;;5.97;;
21334;SDS011;10826;52.536;13.432;2022-09-24T08:14:31;8.70;;;6.60;;
21334;SDS011;10826;52.536;13.432;2022-09-24T08:16:57;7.63;;;6.63;;
21334;SDS011;10826;52.536;13.432;2022-09-24T08:19:24;6.77;;;6.27;;
21334;SDS011;10826;52.536;13.432;2022-09-24T08:21:49;6.70;;;6.20;;
21334;SDS011;10826;52.536;13.432;2022-09-24T08:24:15;6.43;;;5.67;;
21334;SDS011;10826;52.536;13.432;2022-09-24T08:26:41;9.30;;;6.10;;
21334;SDS011;10826;52.536;13.432;2022-09-24T08:29:07;5.93;;;5.47;;
21334;SDS011;10826;52.536;13.432;2022-09-24T08:31:35;7.57;;;6.63;;
21334;SDS011;10826;52.536;13.432;2022-09-24T08:34:01;6.77;;;6.20;;
21334;SDS011;10826;52.536;13.432;2022-09-24T08:36:27;6.13;;;5.63;;
21334;SDS011;10826;52.536;13.432;2022-09-24T08:38:53;6.70;;;6.10;;
21334;SDS011;10826;52.536;13.432;2022-09-24T08:44:21;6.40;;;5.80;;
21334;SDS011;10826;52.536;13.432;2022-09-24T08:53:13;7.83;;;7.13;;
21334;SDS011;10826;52.536;13.432;2022-09-24T08:55:52;6.67;;;5.90;;
21334;SDS011;10826;52.536;13.432;2022-09-24T09:04:53;7.30;;;6.53;;
21334;SDS011;10826;52.536;13.432;2022-09-24T09:08:03;8.13;;;5.90;;
21334;SDS011;10826;52.536;13.432;2022-09-24T09:10:41;7.20;;;6.20;;
21334;SDS011;10826;52.536;13.432;2022-09-24T09:13:10;6.10;;;5.50;;
21334;SDS011;10826;52.536;13.432;2022-09-24T09:15:53;7.23;;;6.57;;
21334;SDS011;10826;52.536;13.432;2022-09-24T09:18:59;6.63;;;6.13;;
21334;SDS011;10826;52.536;13.432;2022-09-24T09:21:39;8.87;;;6.17;;
21334;SDS011;10826;52.536;13.432;2022-09-24T09:24:17;7.57;;;6.87;;
21334;SDS011;10826;52.536;13.432;2022-09-24T09:26:55;6.97;;;6.27;;
21334;SDS011;10826;52.536;13.432;2022-09-24T09:29:23;7.50;;;6.90;;
21334;SDS011;10826;52.536;13.432;2022-09-24T09:37:31;7.00;;;6.30;;
21334;SDS011;10826;52.536;13.432;2022-09-24T09:40:28;7.10;;;6.40;;
21334;SDS011;10826;52.536;13.432;2022-09-24T09:43:13;7.10;;;5.87;;
21334;SDS011;10826;52.536;13.432;2022-09-24T09:48:40;6.47;;;5.97;;
21334;SDS011;10826;52.536;13.432;2022-09-24T09:51:25;7.33;;;6.60;;
21334;SDS011;10826;52.536;13.432;2022-09-24T09:54:01;6.87;;;6.27;;
21334;SDS011;10826;52.536;13.432;2022-09-24T09:56:50;6.67;;;6.13;;
21334;SDS011;10826;52.536;13.432;2022-09-24T09:59:17;6.40;;;5.87;;
21334;SDS011;10826;52.536;13.432;2022-09-24T10:01:48;6.27;;;5.77;;
21334;SDS011;10826;52.536;13.432;2022-09-24T10:04:36;6.53;;;5.93;;
21334;SDS011;10826;52.536;13.432;2022-09-24T10:07:09;6.70;;;6.10;;
21334;SDS011;10826;52.536;13.432;2022-09-24T10:09:40;6.00;;;5.50;;
21334;SDS011;10826;52.536;13.432;2022-09-24T10:12:14;5.73;;;5.23;;
21334;SDS011;10826;52.536;13.432;2022-09-24T10:14:54;6.17;;;5.67;;
21334;SDS011;10826;52.536;13.432;2022-09-24T10:17:38;6.03;;;5.53;;
21334;SDS011;10826;52.536;13.432;2022-09-24T10:20:13;5.80;;;5.30;;
21334;SDS011;10826;52.536;13.432;2022-09-24T10:22:49;6.30;;;5.80;;
21334;SDS011;10826;52.536;13.432;2022-09-24T10:25:23;7.23;;;6.17;;
21334;SDS011;10826;52.536;13.432;2022-09-24T10:27:54;6.23;;;5.80;;
21334;SDS011;10826;52.536;13.432;2022-09-24T10:30:50;6.03;;;5.53;;
21334;SDS011;10826;52.536;13.432;2022-09-24T10:33:22;5.77;;;5.37;;
21334;SDS011;10826;52.536;13.432;2022-09-24T10:35:50;5.37;;;4.73;;
21334;SDS011;10826;52.536;13.432;2022-09-24T10:38:38;5.33;;;4.83;;
21334;SDS011;10826;52.536;13.432;2022-09-24T10:43:55;5.80;;;5.30;;
21334;SDS011;10826;52.536;13.432;2022-09-24T10:52:52;5.97;;;5.47;;
21334;SDS011;10826;52.536;13.432;2022-09-24T10:55:34;6.00;;;5.40;;
21334;SDS011;10826;52.536;13.432;2022-09-24T10:58:36;5.07;;;4.67;;
21334;SDS011;10826;52.536;13.432;2022-09-24T11:04:55;6.40;;;5.90;;
21334;SDS011;10826;52.536;13.432;2022-09-24T11:27:37;5.57;;;4.37;;
21334;SDS011;10826;52.536;13.432;2022-09-24T11:30:26;5.33;;;4.17;;
21334;SDS011;10826;52.536;13.432;2022-09-24T11:39:44;5.80;;;5.20;;
21334;SDS011;10826;52.536;13.432;2022-09-24T11:54:25;4.20;;;3.90;;
21334;SDS011;10826;52.536;13.432;2022-09-24T11:57:08;4.93;;;4.00;;
21334;SDS011;10826;52.536;13.432;2022-09-24T11:59:52;4.40;;;4.10;;
21334;SDS011;10826;52.536;13.432;2022-09-24T12:06:12;4.80;;;3.80;;
21334;SDS011;10826;52.536;13.432;2022-09-24T12:08:38;4.50;;;4.10;;
21334;SDS011;10826;52.536;13.432;2022-09-24T12:11:40;5.00;;;4.47;;
21334;SDS011;10826;52.536;13.432;2022-09-24T12:14:21;4.70;;;4.30;;
21334;SDS011;10826;52.536;13.432;2022-09-24T12:17:08;4.47;;;4.07;;
21334;SDS011;10826;52.536;13.432;2022-09-24T12:19:54;4.30;;;3.90;;
21334;SDS011;10826;52.536;13.432;2022-09-24T12:22:28;4.40;;;4.10;;
21334;SDS011;10826;52.536;13.432;2022-09-24T12:24:58;3.97;;;3.67;;
21334;SDS011;10826;52.536;13.432;2022-09-24T12:27:35;4.43;;;4.13;;
21334;SDS011;10826;52.536;13.432;2022-09-24T12:35:59;5.13;;;4.73;;
21334;SDS011;10826;52.536;13.432;2022-09-24T12:39:11;4.77;;;4.37;;
21334;SDS011;10826;52.536;13.432;2022-09-24T12:46:41;5.37;;;4.87;;
21334;SDS011;10826;52.536;13.432;2022-09-24T12:51:48;5.20;;;4.70;;
21334;SDS011;10826;52.536;13.432;2022-09-24T12:57:16;7.60;;;4.27;;
21334;SDS011;10826;52.536;13.432;2022-09-24T12:59:51;5.13;;;4.60;;
21334;SDS011;10826;52.536;13.432;2022-09-24T13:11:02;6.17;;;4.70;;
21334;SDS011;10826;52.536;13.432;2022-09-24T13:13:57;4.70;;;4.30;;
21334;SDS011;10826;52.536;13.432;2022-09-24T13:16:49;4.57;;;4.17;;
21334;SDS011;10826;52.536;13.432;2022-09-24T13:22:20;4.53;;;4.10;;
21334;SDS011;10826;52.536;13.432;2022-09-24T13:27:35;4.83;;;4.43;;
21334;SDS011;10826;52.536;13.432;2022-09-24T13:32:45;6.67;;;4.97;;
21334;SDS011;10826;52.536;13.432;2022-09-24T13:35:32;5.27;;;4.70;;
21334;SDS011;10826;52.536;13.432;2022-09-24T13:38:23;4.43;;;4.13;;
21334;SDS011;10826;52.536;13.432;2022-09-24T13:44:01;5.53;;;5.03;;
21334;SDS011;10826;52.536;13.432;2022-09-24T13:46:40;4.87;;;4.30;;
21334;SDS011;10826;52.536;13.432;2022-09-24T13:49:12;5.57;;;5.07;;
21334;SDS011;10826;52.536;13.432;2022-09-24T13:51:47;4.73;;;4.33;;
21334;SDS011;10826;52.536;13.432;2022-09-24T13:54:56;4.73;;;4.43;;
21334;SDS011;10826;52.536;13.432;2022-09-24T13:57:40;5.57;;;4.67;;
21334;SDS011;10826;52.536;13.432;2022-09-24T14:00:22;4.63;;;4.23;;
21334;SDS011;10826;52.536;13.432;2022-09-24T14:06:39;8.40;;;5.67;;
21334;SDS011;10826;52.536;13.432;2022-09-24T14:09:30;5.23;;;4.83;;
21334;SDS011;10826;52.536;13.432;2022-09-24T14:12:22;4.87;;;4.53;;
21334;SDS011;10826;52.536;13.432;2022-09-24T14:14:58;4.90;;;4.50;;
21334;SDS011;10826;52.536;13.432;2022-09-24T14:17:28;4.67;;;4.30;;
21334;SDS011;10826;52.536;13.432;2022-09-24T14:19:55;4.50;;;4.20;;
21334;SDS011;10826;52.536;13.432;2022-09-24T14:22:28;4.83;;;4.33;;
21334;SDS011;10826;52.536;13.432;2022-09-24T14:25:16;4.50;;;4.10;;
21334;SDS011;10826;52.536;13.432;2022-09-24T14:28:05;5.00;;;4.60;;
21334;SDS011;10826;52.536;13.432;2022-09-24T14:30:31;4.20;;;3.80;;
21334;SDS011;10826;52.536;13.432;2022-09-24T14:33:00;4.77;;;4.37;;
21334;SDS011;10826;52.536;13.432;2022-09-24T14:35:36;4.83;;;4.43;;
21334;SDS011;10826;52.536;13.432;2022-09-24T14:38:15;4.67;;;4.03;;
21334;SDS011;10826;52.536;13.432;2022-09-24T14:44:34;5.30;;;4.83;;
21334;SDS011;10826;52.536;13.432;2022-09-24T14:46:57;5.03;;;4.33;;
21334;SDS011;10826;52.536;13.432;2022-09-24T14:49:31;5.13;;;4.77;;
21334;SDS011;10826;52.536;13.432;2022-09-24T14:52:23;4.67;;;4.37;;
21334;SDS011;10826;52.536;13.432;2022-09-24T14:57:49;5.50;;;4.70;;
21334;SDS011;10826;52.536;13.432;2022-09-24T15:00:22;5.87;;;4.50;;
21334;SDS011;10826;52.536;13.432;2022-09-24T15:02:57;5.77;;;4.70;;
21334;SDS011;10826;52.536;13.432;2022-09-24T15:05:39;4.67;;;4.17;;
21334;SDS011;10826;52.536;13.432;2022-09-24T15:10:56;4.50;;;4.20;;
21334;SDS011;10826;52.536;13.432;2022-09-24T15:13:31;4.27;;;3.97;;
21334;SDS011;10826;52.536;13.432;2022-09-24T15:16:01;4.70;;;4.30;;
21334;SDS011;10826;52.536;13.432;2022-09-24T15:19:34;8.97;;;4.70;;
21334;SDS011;10826;52.536;13.432;2022-09-24T15:21:58;5.13;;;4.73;;
21334;SDS011;10826;52.536;13.432;2022-09-24T15:24:26;5.60;;;4.60;;
21334;SDS011;10826;52.536;13.432;2022-09-24T15:27:01;5.33;;;4.93;;
21334;SDS011;10826;52.536;13.432;2022-09-24T15:29:51;5.30;;;4.83;;
21334;SDS011;10826;52.536;13.432;2022-09-24T15:32:24;5.10;;;4.60;;
21334;SDS011;10826;52.536;13.432;2022-09-24T15:34:53;5.43;;;4.93;;
21334;SDS011;10826;52.536;13.432;2022-09-24T15:37:21;7.03;;;5.70;;
21334;SDS011;10826;52.536;13.432;2022-09-24T15:39:55;5.53;;;5.03;;
21334;SDS011;10826;52.536;13.432;2022-09-24T15:42:26;5.90;;;5.40;;
21334;SDS011;10826;52.536;13.432;2022-09-24T15:44:52;7.23;;;6.67;;
21334;SDS011;10826;52.536;13.432;2022-09-24T15:47:19;6.20;;;5.60;;
21334;SDS011;10826;52.536;13.432;2022-09-24T15:49:45;5.57;;;5.07;;
21334;SDS011;10826;52.536;13.432;2022-09-24T15:52:15;5.33;;;4.83;;
21334;SDS011;10826;52.536;13.432;2022-09-24T15:54:49;4.90;;;4.50;;
21334;SDS011;10826;52.536;13.432;2022-09-24T15:57:25;6.53;;;5.43;;
21334;SDS011;10826;52.536;13.432;2022-09-24T15:59:52;6.33;;;5.30;;
21334;SDS011;10826;52.536;13.432;2022-09-24T16:02:26;7.90;;;5.33;;
21334;SDS011;10826;52.536;13.432;2022-09-24T16:04:57;6.07;;;5.57;;
21334;SDS011;10826;52.536;13.432;2022-09-24T16:07:24;5.97;;;5.53;;
21334;SDS011;10826;52.536;13.432;2022-09-24T16:09:50;6.17;;;5.67;;
21334;SDS011;10826;52.536;13.432;2022-09-24T16:12:17;6.73;;;6.07;;
21334;SDS011;10826;52.536;13.432;2022-09-24T16:14:44;6.73;;;6.17;;
21334;SDS011;10826;52.536;13.432;2022-09-24T16:17:11;14.67;;;7.17;;
21334;SDS011;10826;52.536;13.432;2022-09-24T16:19:37;7.17;;;6.47;;
21334;SDS011;10826;52.536;13.432;2022-09-24T16:22:03;6.57;;;5.90;;
21334;SDS011;10826;52.536;13.432;2022-09-24T16:24:32;6.90;;;6.20;;
21334;SDS011;10826;52.536;13.432;2022-09-24T16:26:59;7.33;;;6.73;;
21334;SDS011;10826;52.536;13.432;2022-09-24T16:29:25;7.03;;;6.30;;
21334;SDS011;10826;52.536;13.432;2022-09-24T16:31:51;6.27;;;5.77;;
21334;SDS011;10826;52.536;13.432;2022-09-24T16:34:17;5.77;;;5.33;;
21334;SDS011;10826;52.536;13.432;2022-09-24T16:36:43;7.23;;;6.63;;
21334;SDS011;10826;52.536;13.432;2022-09-24T16:39:09;8.27;;;7.57;;
21334;SDS011;10826;52.536;13.432;2022-09-24T16:41:35;7.60;;;7.00;;
21334;SDS011;10826;52.536;13.432;2022-09-24T16:44:02;8.93;;;8.03;;
21334;SDS011;10826;52.536;13.432;2022-09-24T16:46:28;7.93;;;7.07;;
21334;SDS011;10826;52.536;13.432;2022-09-24T16:48:55;10.13;;;8.20;;
21334;SDS011;10826;52.536;13.432;2022-09-24T16:51:21;11.13;;;6.90;;
21334;SDS011;10826;52.536;13.432;2022-09-24T16:53:52;7.67;;;7.07;;
21334;SDS011;10826;52.536;13.432;2022-09-24T16:56:21;9.33;;;7.23;;
21334;SDS011;10826;52.536;13.432;2022-09-24T16:58:48;7.60;;;6.93;;
21334;SDS011;10826;52.536;13.432;2022-09-24T17:01:18;8.37;;;7.57;;
21334;SDS011;10826;52.536;13.432;2022-09-24T17:03:50;8.43;;;7.70;;
21334;SDS011;10826;52.536;13.432;2022-09-24T17:06:21;7.60;;;6.90;;
21334;SDS011;10826;52.536;13.432;2022-09-24T17:08:53;7.93;;;7.27;;
21334;SDS011;10826;52.536;13.432;2022-09-24T17:11:38;9.47;;;7.87;;
21334;SDS011;10826;52.536;13.432;2022-09-24T17:14:05;8.27;;;7.67;;
21334;SDS011;10826;52.536;13.432;2022-09-24T17:16:33;11.70;;;8.60;;
21334;SDS011;10826;52.536;13.432;2022-09-24T17:18:59;10.03;;;9.13;;
21334;SDS011;10826;52.536;13.432;2022-09-24T17:21:25;15.60;;;10.47;;
21334;SDS011;10826;52.536;13.432;2022-09-24T17:23:52;10.40;;;9.43;;
21334;SDS011;10826;52.536;13.432;2022-09-24T17:26:18;10.27;;;9.17;;
21334;SDS011;10826;52.536;13.432;2022-09-24T17:28:46;11.47;;;10.17;;
21334;SDS011;10826;52.536;13.432;2022-09-24T17:31:16;12.50;;;10.10;;